Airport ICAO


12:51 UTC

15°C


An affordable passengers' Moving Map for your aircraft. Made for the iPad and the iPhone
More information here

LFMC Le Cannet


Le Luc FRANCE   


METAR LFMC 101230Z AUTO 33024KT 9999 ////// 15/M01 Q1019 0h21min





NOTAMS

OPEN